Time;durP1;ratioP1;P1;durP2;ratioP2;P2;SDS_P1;SDS_P2;PMS_P1;PMS_P2;Temp;Humidity;BMP_temperature;BMP_pressure;BME280_temperature;BME280_humidity;BME280_pressure;Samples;Min_cycle;Max_cycle;Signal;HPM_P1;HPM_P2
2023/04/19 00:00:34;;;;;;;13.13;11.87;;;10.20;99.90;;;;;;5058759;28;20280;-43
2023/04/19 00:03:04;;;;;;;14.13;12.70;;;10.20;1.00;;;;;;5057807;28;20198;-44
2023/04/19 00:05:30;;;;;;;13.90;12.50;;;10.10;1.00;;;;;;5056798;28;20285;-44
2023/04/19 00:07:55;;;;;;;14.77;13.17;;;10.10;1.00;;;;;;5057320;28;20956;-43
2023/04/19 00:10:21;;;;;;;13.07;11.77;;;10.00;1.00;;;;;;5054133;28;20648;-45
2023/04/19 00:12:47;;;;;;;13.20;11.90;;;10.00;1.00;;;;;;5054366;28;20260;-46
2023/04/19 00:15:12;;;;;;;14.03;12.60;;;10.00;1.00;;;;;;5055205;28;20182;-46
2023/04/19 00:17:38;;;;;;;13.07;11.60;;;10.00;1.00;;;;;;5056546;28;20246;-44
2023/04/19 00:20:04;;;;;;;13.40;12.00;;;10.00;1.00;;;;;;5056879;28;20772;-47
2023/04/19 00:22:30;;;;;;;15.30;13.70;;;9.90;22.40;;;;;;5056841;28;20459;-44
2023/04/19 00:24:56;;;;;;;14.30;12.90;;;9.90;27.20;;;;;;5057201;28;20428;-44
2023/04/19 00:27:21;;;;;;;13.40;12.10;;;9.80;99.90;;;;;;5058506;28;20253;-44
2023/04/19 00:29:47;;;;;;;15.27;13.77;;;9.90;98.60;;;;;;5057881;28;20506;-43
2023/04/19 00:32:13;;;;;;;14.80;13.30;;;9.80;99.90;;;;;;5058662;28;20268;-44
2023/04/19 00:34:39;;;;;;;15.63;13.93;;;9.80;99.90;;;;;;5039332;28;20457;-44
2023/04/19 00:37:05;;;;;;;15.30;13.90;;;9.80;99.90;;;;;;5056822;28;20420;-44
2023/04/19 00:39:30;;;;;;;14.23;12.80;;;9.80;99.90;;;;;;5057118;28;20173;-44
2023/04/19 00:42:00;;;;;;;14.23;12.77;;;9.70;99.90;;;;;;5056701;28;20255;-45
2023/04/19 00:44:25;;;;;;;15.23;13.73;;;9.70;99.90;;;;;;5057199;28;20197;-44
2023/04/19 00:46:51;;;;;;;15.63;14.03;;;9.70;99.90;;;;;;5056249;28;20475;-45
2023/04/19 00:49:18;;;;;;;15.67;14.07;;;9.70;99.90;;;;;;5054744;28;20281;-45
2023/04/19 00:51:43;;;;;;;16.87;15.23;;;9.60;99.90;;;;;;5056273;28;20237;-47
2023/04/19 00:54:09;;;;;;;15.00;13.60;;;9.70;99.90;;;;;;5057443;28;20471;-46
2023/04/19 00:56:35;;;;;;;17.47;14.77;;;9.70;99.90;;;;;;5057488;28;20553;-46
2023/04/19 00:59:01;;;;;;;15.60;14.00;;;9.70;99.90;;;;;;5056884;28;20259;-47
2023/04/19 01:01:27;;;;;;;15.70;14.10;;;9.60;99.90;;;;;;5058027;28;20225;-44
2023/04/19 01:03:53;;;;;;;16.17;14.53;;;9.60;99.90;;;;;;5058122;28;20428;-44
2023/04/19 01:06:19;;;;;;;14.90;13.40;;;9.60;99.90;;;;;;5057160;28;20489;-44
2023/04/19 01:08:45;;;;;;;14.73;13.23;;;9.60;99.90;;;;;;5058442;28;20185;-46
2023/04/19 01:11:11;;;;;;;14.60;13.20;;;9.60;99.90;;;;;;5058220;28;20471;-44
2023/04/19 01:13:36;;;;;;;15.17;13.67;;;9.60;99.90;;;;;;5058632;28;20178;-45
2023/04/19 01:16:02;;;;;;;14.20;12.80;;;9.60;99.90;;;;;;5058610;28;20220;-44
2023/04/19 01:18:31;;;;;;;15.47;13.97;;;9.60;99.90;;;;;;5058080;28;20205;-47
2023/04/19 01:20:58;;;;;;;15.53;13.93;;;9.60;99.90;;;;;;5057714;28;20209;-45
2023/04/19 01:23:23;;;;;;;15.53;14.00;;;9.60;99.90;;;;;;5058408;28;20427;-45
2023/04/19 01:25:49;;;;;;;14.87;13.33;;;9.50;99.90;;;;;;5058132;28;20511;-45
2023/04/19 01:31:36;;;;;;;14.70;13.20;;;9.50;1.00;;;;;;5057426;28;20664;-46
2023/04/19 01:34:02;;;;;;;15.50;13.80;;;9.50;99.90;;;;;;5056766;28;20428;-44
2023/04/19 01:36:27;;;;;;;16.20;13.70;;;9.50;1.00;;;;;;5057435;28;20528;-46
2023/04/19 01:38:54;;;;;;;16.50;14.07;;;9.50;1.00;;;;;;5057139;28;20513;-46
2023/04/19 01:41:21;;;;;;;16.50;14.70;;;9.40;1.00;;;;;;5055991;28;20277;-45
2023/04/19 01:43:47;;;;;;;14.73;13.23;;;9.40;1.00;;;;;;5056898;28;20420;-47
2023/04/19 01:46:12;;;;;;;15.20;13.70;;;9.40;1.00;;;;;;5057040;28;20497;-47
2023/04/19 01:48:38;;;;;;;16.13;14.37;;;9.40;1.00;;;;;;5057055;28;20260;-44
2023/04/19 01:51:03;;;;;;;15.40;13.80;;;9.40;1.00;;;;;;5055107;28;20221;-48
2023/04/19 01:53:29;;;;;;;17.30;15.10;;;9.40;1.00;;;;;;5053925;28;20645;-46
2023/04/19 01:55:54;;;;;;;14.40;12.90;;;9.40;1.00;;;;;;5055398;28;20174;-44
2023/04/19 01:58:20;;;;;;;14.93;13.53;;;9.40;1.00;;;;;;5056239;28;20182;-45
2023/04/19 02:00:46;;;;;;;15.40;13.93;;;9.40;1.00;;;;;;5056415;28;20182;-46
2023/04/19 02:03:11;;;;;;;17.03;15.40;;;9.30;1.00;;;;;;5056746;28;20787;-47
2023/04/19 02:05:38;;;;;;;17.27;15.47;;;9.30;1.00;;;;;;5056210;28;20188;-45
2023/04/19 02:08:04;;;;;;;16.07;14.40;;;9.30;1.00;;;;;;5055588;28;20181;-45
2023/04/19 02:10:30;;;;;;;16.40;14.70;;;9.30;1.00;;;;;;5055473;28;20478;-45
2023/04/19 02:13:01;;;;;;;16.47;14.73;;;9.30;1.00;;;;;;5055867;28;20173;-44
2023/04/19 02:15:28;;;;;;;17.57;14.77;;;9.30;1.00;;;;;;5056098;28;20193;-45
2023/04/19 02:17:53;;;;;;;17.13;15.43;;;9.30;1.00;;;;;;5056238;28;20777;-45
2023/04/19 02:20:19;;;;;;;17.57;15.67;;;9.20;1.00;;;;;;5056424;28;20424;-44
2023/04/19 02:22:46;;;;;;;17.20;15.40;;;9.30;1.00;;;;;;5054671;28;20193;-45
2023/04/19 02:25:12;;;;;;;16.17;14.57;;;9.20;1.00;;;;;;5055926;28;20201;-44
2023/04/19 02:27:37;;;;;;;18.87;15.57;;;9.20;1.00;;;;;;5055231;28;20459;-45
2023/04/19 02:30:03;;;;;;;17.33;15.53;;;9.30;1.00;;;;;;5055449;28;20281;-46
2023/04/19 02:32:29;;;;;;;15.87;14.17;;;9.20;1.00;;;;;;5053817;28;20235;-44
2023/04/19 02:34:54;;;;;;;17.30;14.47;;;9.20;1.00;;;;;;5054016;28;20420;-44
2023/04/19 02:37:21;;;;;;;18.20;16.37;;;9.20;1.00;;;;;;5055914;28;20516;-46
2023/04/19 02:39:46;;;;;;;16.13;14.33;;;9.20;1.00;;;;;;5055708;28;20245;-44
2023/04/19 02:42:12;;;;;;;17.80;16.00;;;9.20;1.00;;;;;;5055656;28;20526;-45
2023/04/19 02:44:37;;;;;;;18.40;14.77;;;9.10;1.00;;;;;;5055584;28;20177;-47
2023/04/19 02:47:03;;;;;;;18.23;16.43;;;9.10;1.00;;;;;;5055900;28;20182;-46
2023/04/19 02:49:33;;;;;;;18.33;16.53;;;9.10;1.00;;;;;;5056066;28;20628;-47
2023/04/19 02:51:59;;;;;;;17.43;15.53;;;9.10;1.00;;;;;;5056372;28;20170;-44
2023/04/19 02:54:24;;;;;;;18.80;16.90;;;9.10;1.00;;;;;;5056062;28;20423;-46
2023/04/19 02:56:50;;;;;;;18.57;15.27;;;9.20;1.00;;;;;;5055846;28;20281;-44
2023/04/19 02:59:15;;;;;;;19.13;17.03;;;9.10;1.00;;;;;;5055549;28;20247;-44
2023/04/19 03:01:41;;;;;;;18.00;16.10;;;9.10;1.00;;;;;;5055639;28;20177;-44
2023/04/19 03:04:06;;;;;;;18.20;16.23;;;9.10;1.00;;;;;;5055045;28;20475;-45
2023/04/19 03:06:32;;;;;;;17.23;15.47;;;9.10;1.00;;;;;;5055141;28;20181;-44
2023/04/19 03:08:58;;;;;;;18.27;16.27;;;9.00;1.00;;;;;;5052897;28;20249;-45
2023/04/19 03:11:23;;;;;;;18.73;16.73;;;9.00;5.90;;;;;;5054017;28;20198;-48
2023/04/19 03:13:49;;;;;;;18.50;16.30;;;9.00;27.80;;;;;;5054703;28;20174;-45
2023/04/19 03:16:15;;;;;;;18.07;16.27;;;9.00;10.30;;;;;;5054650;28;20174;-45
2023/04/19 03:18:40;;;;;;;19.40;17.37;;;9.00;18.10;;;;;;5055826;28;20174;-44
2023/04/19 03:21:08;;;;;;;19.00;16.87;;;9.00;11.00;;;;;;5054330;28;20250;-44
2023/04/19 03:23:34;;;;;;;19.60;17.20;;;9.00;23.40;;;;;;5054749;28;20185;-47
2023/04/19 03:25:59;;;;;;;19.77;17.67;;;9.00;49.30;;;;;;5054320;28;20790;-44
2023/04/19 03:28:25;;;;;;;20.20;17.40;;;8.90;49.60;;;;;;5053343;28;20299;-45
2023/04/19 03:30:51;;;;;;;18.40;14.93;;;9.00;70.50;;;;;;5055290;28;20550;-44
2023/04/19 03:33:16;;;;;;;19.20;17.30;;;9.00;86.80;;;;;;5054962;28;20173;-45
2023/04/19 03:35:43;;;;;;;19.90;17.40;;;9.00;84.50;;;;;;5055333;28;20253;-45
2023/04/19 03:38:08;;;;;;;19.27;17.20;;;9.00;44.80;;;;;;5055200;28;20171;-43
2023/04/19 03:40:36;;;;;;;19.30;17.30;;;9.00;52.60;;;;;;5053356;28;20518;-45
2023/04/19 03:43:01;;;;;;;20.03;17.93;;;9.00;57.40;;;;;;5052283;28;20208;-44
2023/04/19 03:45:27;;;;;;;19.90;17.80;;;8.90;36.10;;;;;;5051715;28;20452;-45
2023/04/19 03:47:52;;;;;;;19.60;17.60;;;8.90;94.90;;;;;;5053217;28;20208;-44
2023/04/19 03:50:18;;;;;;;22.37;18.53;;;8.90;99.90;;;;;;5054026;28;20202;-45
2023/04/19 03:52:44;;;;;;;21.30;17.17;;;8.90;99.90;;;;;;5055219;28;20174;-47
2023/04/19 03:55:11;;;;;;;20.50;18.37;;;8.90;99.90;;;;;;5055612;28;20177;-46
2023/04/19 03:57:36;;;;;;;20.47;18.27;;;8.90;99.90;;;;;;5058977;28;20161;-47
2023/04/19 04:00:06;;;;;;;20.23;17.57;;;8.90;99.90;;;;;;5059122;28;20502;-46
2023/04/19 04:02:31;;;;;;;18.53;16.57;;;8.90;99.90;;;;;;5059100;28;20174;-45
2023/04/19 04:04:57;;;;;;;22.17;17.77;;;8.80;99.90;;;;;;5059041;28;20431;-44
2023/04/19 04:07:23;;;;;;;20.87;17.90;;;8.80;99.90;;;;;;5058503;28;20238;-44
2023/04/19 04:09:49;;;;;;;22.17;19.00;;;8.80;99.90;;;;;;5059017;28;20238;-44
2023/04/19 04:12:15;;;;;;;21.47;18.80;;;8.80;99.90;;;;;;5057462;28;20828;-44
2023/04/19 04:14:40;;;;;;;20.87;18.73;;;8.80;99.90;;;;;;5058391;28;20177;-44
2023/04/19 04:17:06;;;;;;;22.77;19.23;;;8.80;99.90;;;;;;5056910;28;20274;-44
2023/04/19 04:19:31;;;;;;;21.30;17.63;;;8.80;99.90;;;;;;5058427;28;20173;-45
2023/04/19 04:21:57;;;;;;;22.57;17.60;;;8.70;99.90;;;;;;5057899;28;20273;-45
2023/04/19 04:24:23;;;;;;;21.50;18.10;;;8.70;99.90;;;;;;5056632;28;20643;-45
2023/04/19 04:26:48;;;;;;;22.63;19.33;;;8.70;99.90;;;;;;5056934;28;20305;-45
2023/04/19 04:29:15;;;;;;;21.27;19.03;;;8.60;99.90;;;;;;5058030;28;20186;-46
2023/04/19 04:31:40;;;;;;;21.97;19.57;;;8.60;99.90;;;;;;5055412;28;20206;-45
2023/04/19 04:34:08;;;;;;;22.87;20.37;;;8.70;99.90;;;;;;5052489;28;20515;-44
2023/04/19 04:36:35;;;;;;;22.97;18.53;;;8.70;99.90;;;;;;5054022;28;20448;-44
2023/04/19 04:39:01;;;;;;;23.50;21.00;;;8.70;99.90;;;;;;5053785;28;20674;-44
2023/04/19 04:41:26;;;;;;;20.47;18.37;;;8.70;99.90;;;;;;5051901;28;20493;-43
2023/04/19 04:43:52;;;;;;;23.13;20.23;;;8.70;99.90;;;;;;5053218;28;20503;-47
2023/04/19 04:46:18;;;;;;;22.97;19.50;;;8.70;99.90;;;;;;5053217;28;20203;-44
2023/04/19 04:48:43;;;;;;;21.07;18.97;;;8.70;99.90;;;;;;5052692;28;20170;-45
2023/04/19 04:51:09;;;;;;;20.57;18.37;;;8.70;99.90;;;;;;5053082;28;20201;-46
2023/04/19 04:53:35;;;;;;;21.90;19.47;;;8.70;99.90;;;;;;5053407;28;20537;-45
2023/04/19 04:56:00;;;;;;;22.60;19.80;;;8.70;99.90;;;;;;5054680;28;20671;-45
2023/04/19 04:58:26;;;;;;;22.77;20.47;;;8.70;99.90;;;;;;5052873;28;20162;-43
2023/04/19 05:00:51;;;;;;;21.73;19.30;;;8.80;99.90;;;;;;5053590;28;20181;-46
2023/04/19 05:03:17;;;;;;;20.77;18.57;;;8.80;99.90;;;;;;5053309;28;20190;-45
2023/04/19 05:05:43;;;;;;;22.90;20.20;;;8.80;99.90;;;;;;5052041;28;20503;-44
2023/04/19 05:08:08;;;;;;;26.23;21.10;;;8.80;99.90;;;;;;5049330;28;20190;-45
2023/04/19 05:10:34;;;;;;;23.13;20.80;;;8.70;99.90;;;;;;5049395;28;20561;-45
2023/04/19 05:13:00;;;;;;;23.37;19.97;;;8.80;99.90;;;;;;5049086;28;20254;-44
2023/04/19 05:15:26;;;;;;;21.07;18.93;;;8.70;99.90;;;;;;5049669;28;20174;-44
2023/04/19 05:17:51;;;;;;;22.97;20.00;;;8.70;99.90;;;;;;5047369;28;21007;-44
2023/04/19 05:20:17;;;;;;;23.77;20.17;;;8.80;99.90;;;;;;5049800;28;20232;-44
2023/04/19 05:22:42;;;;;;;21.70;18.60;;;8.80;99.90;;;;;;5049907;28;20182;-44
2023/04/19 05:25:10;;;;;;;22.33;20.00;;;8.80;99.90;;;;;;5053802;28;20259;-49
2023/04/19 05:27:37;;;;;;;21.83;19.63;;;8.90;99.90;;;;;;5051948;28;20917;-44
2023/04/19 05:30:05;;;;;;;21.47;19.20;;;8.90;99.90;;;;;;5050982;28;20474;-44
2023/04/19 05:32:31;;;;;;;21.23;18.87;;;8.90;97.20;;;;;;5049841;28;20427;-44
2023/04/19 05:34:56;;;;;;;21.23;19.03;;;9.00;99.90;;;;;;5050876;28;20515;-44
2023/04/19 05:37:23;;;;;;;21.50;19.20;;;9.10;31.20;;;;;;5052717;28;20484;-44
2023/04/19 05:39:49;;;;;;;24.77;20.80;;;9.10;1.00;;;;;;5051039;28;20177;-44
2023/04/19 05:42:14;;;;;;;20.57;18.27;;;9.20;1.00;;;;;;5049489;28;20424;-44
2023/04/19 05:44:40;;;;;;;19.57;17.57;;;9.20;1.00;;;;;;5048692;28;20451;-43
2023/04/19 05:47:05;;;;;;;22.47;20.07;;;9.20;1.00;;;;;;5048871;28;20248;-45
2023/04/19 05:49:31;;;;;;;21.37;19.27;;;9.30;1.00;;;;;;5048997;28;20389;-45
2023/04/19 05:51:56;;;;;;;21.20;19.00;;;9.30;1.00;;;;;;5050209;28;20413;-44
2023/04/19 05:54:22;;;;;;;20.90;18.60;;;9.40;1.00;;;;;;5049403;28;20170;-45
2023/04/19 05:56:48;;;;;;;21.90;19.50;;;9.30;1.00;;;;;;5050616;28;20180;-45
2023/04/19 05:59:14;;;;;;;20.73;18.53;;;9.30;1.00;;;;;;5052816;28;20250;-45
2023/04/19 06:01:39;;;;;;;21.20;19.00;;;9.30;1.00;;;;;;5052077;28;20280;-44
2023/04/19 06:04:05;;;;;;;25.00;21.37;;;9.30;1.00;;;;;;5051408;28;20416;-45
2023/04/19 06:06:30;;;;;;;21.30;18.50;;;9.30;1.00;;;;;;5049559;28;20182;-46
2023/04/19 06:08:56;;;;;;;21.70;19.40;;;9.30;1.00;;;;;;5049623;28;20185;-45
2023/04/19 06:11:22;;;;;;;20.87;18.47;;;9.40;1.00;;;;;;5049818;28;20300;-44
2023/04/19 06:13:49;;;;;;;22.00;18.03;;;9.40;1.00;;;;;;5049151;28;20209;-44
2023/04/19 06:16:15;;;;;;;21.47;19.13;;;9.40;1.00;;;;;;5048505;28;20269;-44
2023/04/19 06:18:42;;;;;;;22.10;19.27;;;9.40;1.00;;;;;;5049777;28;20507;-44
2023/04/19 06:21:07;;;;;;;22.93;18.30;;;9.40;99.90;;;;;;5051198;28;20342;-46
2023/04/19 06:23:33;;;;;;;23.03;18.50;;;9.50;99.90;;;;;;5050510;28;20726;-44
2023/04/19 06:25:58;;;;;;;22.10;19.70;;;9.50;99.90;;;;;;5049325;28;20574;-44
2023/04/19 06:28:24;;;;;;;19.80;17.80;;;9.60;99.90;;;;;;5049403;28;20250;-45
2023/04/19 06:30:50;;;;;;;18.60;16.63;;;9.60;99.90;;;;;;5048799;28;20217;-45
2023/04/19 06:33:15;;;;;;;21.20;18.03;;;9.70;99.90;;;;;;5049834;28;20174;-45
2023/04/19 06:35:41;;;;;;;22.10;18.20;;;9.70;99.90;;;;;;5050387;28;20559;-45
2023/04/19 06:38:06;;;;;;;19.23;17.23;;;9.80;35.60;;;;;;5052355;28;20178;-45
2023/04/19 06:40:33;;;;;;;19.73;17.10;;;9.80;1.00;;;;;;5052520;28;20186;-44
2023/04/19 06:42:58;;;;;;;20.30;17.20;;;9.70;1.00;;;;;;5052842;28;20212;-44
2023/04/19 06:45:24;;;;;;;18.83;16.83;;;9.80;1.30;;;;;;5054361;28;21078;-44
2023/04/19 06:47:50;;;;;;;21.50;19.20;;;10.00;1.00;;;;;;5054896;28;20177;-46
2023/04/19 06:50:16;;;;;;;20.03;17.93;;;10.00;1.00;;;;;;5054370;28;20570;-47
2023/04/19 06:52:41;;;;;;;19.77;17.73;;;10.10;1.00;;;;;;5053191;28;20555;-45
2023/04/19 06:55:08;;;;;;;20.87;18.20;;;10.20;1.00;;;;;;5052479;28;20170;-45
2023/04/19 06:57:33;;;;;;;18.67;16.63;;;10.40;1.00;;;;;;5052909;28;20201;-46
2023/04/19 06:59:59;;;;;;;18.13;16.23;;;10.50;99.90;;;;;;5051964;28;21001;-44
2023/04/19 07:02:25;;;;;;;19.87;16.90;;;10.70;6.90;;;;;;5053122;28;20276;-45
2023/04/19 07:04:50;;;;;;;17.67;15.77;;;10.80;1.00;;;;;;5052535;28;20583;-45
2023/04/19 07:07:16;;;;;;;18.87;16.97;;;10.90;99.90;;;;;;5052782;28;20194;-43
2023/04/19 07:09:41;;;;;;;17.93;16.07;;;11.00;1.00;;;;;;5054930;28;20606;-43
2023/04/19 07:12:07;;;;;;;19.70;17.60;;;11.00;1.00;;;;;;5052416;28;20169;-43
2023/04/19 07:14:33;;;;;;;16.70;14.90;;;11.00;99.90;;;;;;5052012;28;20170;-43
2023/04/19 07:16:58;;;;;;;19.50;15.93;;;11.00;99.90;;;;;;5051252;28;20393;-44
2023/04/19 07:19:25;;;;;;;16.57;14.87;;;11.00;99.90;;;;;;5051246;28;20196;-42
2023/04/19 07:21:50;;;;;;;14.47;12.33;;;11.10;37.30;;;;;;5051352;28;20467;-45
2023/04/19 07:24:16;;;;;;;14.63;13.13;;;11.30;1.00;;;;;;5052368;28;20423;-46
2023/04/19 07:26:42;;;;;;;15.40;13.83;;;11.50;99.90;;;;;;5051269;28;20231;-44
2023/04/19 07:29:07;;;;;;;15.70;13.13;;;11.80;99.90;;;;;;5051232;28;20567;-44
2023/04/19 07:31:33;;;;;;;15.00;13.43;;;12.00;1.00;;;;;;5054088;28;20298;-44
2023/04/19 07:33:59;;;;;;;17.17;15.30;;;12.30;69.00;;;;;;5057277;28;20524;-44
2023/04/19 07:36:24;;;;;;;15.50;14.00;;;12.40;99.90;;;;;;5056096;28;20243;-44
2023/04/19 07:38:50;;;;;;;16.20;14.57;;;12.50;99.90;;;;;;5054736;28;20177;-44
2023/04/19 07:41:17;;;;;;;14.83;13.40;;;12.40;1.00;;;;;;5055512;28;20181;-45
2023/04/19 07:43:42;;;;;;;14.80;13.30;;;12.50;99.90;;;;;;5055386;28;20181;-43
2023/04/19 07:46:09;;;;;;;14.27;12.77;;;12.60;99.90;;;;;;5054722;28;20420;-45
2023/04/19 07:48:35;;;;;;;14.90;13.30;;;12.70;99.90;;;;;;5054911;28;20170;-44
2023/04/19 07:51:11;;;;;;;13.50;12.10;;;12.90;1.00;;;;;;5055095;28;20491;-47
2023/04/19 07:53:38;;;;;;;16.30;14.60;;;13.10;1.00;;;;;;5055719;28;20521;-44
2023/04/19 07:56:05;;;;;;;15.27;13.80;;;13.20;99.90;;;;;;5056672;28;20431;-44
2023/04/19 07:58:33;;;;;;;15.80;14.20;;;13.40;1.00;;;;;;5057824;28;20439;-44
2023/04/19 08:00:58;;;;;;;14.40;13.00;;;13.40;1.00;;;;;;5058034;28;20500;-43
2023/04/19 08:03:25;;;;;;;17.23;14.70;;;13.40;1.00;;;;;;5057882;28;20548;-46
2023/04/19 08:05:51;;;;;;;14.30;12.90;;;13.40;1.00;;;;;;5039094;28;20201;-44
2023/04/19 08:08:17;;;;;;;15.03;13.53;;;13.40;1.00;;;;;;5056244;28;20754;-44
2023/04/19 08:10:44;;;;;;;15.60;14.10;;;13.40;1.00;;;;;;5055415;28;20205;-43
2023/04/19 08:13:10;;;;;;;13.67;12.27;;;13.30;1.00;;;;;;5054366;28;20180;-44
2023/04/19 08:15:36;;;;;;;15.90;14.30;;;13.40;1.00;;;;;;5056095;28;20416;-44
2023/04/19 08:18:03;;;;;;;15.13;13.63;;;13.40;1.00;;;;;;5054816;28;20251;-44
2023/04/19 08:20:31;;;;;;;15.77;14.17;;;13.50;1.00;;;;;;5055238;28;20497;-46
2023/04/19 08:22:58;;;;;;;19.17;14.60;;;13.60;1.00;;;;;;5055562;28;20434;-45
2023/04/19 08:25:27;;;;;;;14.53;13.13;;;13.70;1.00;;;;;;5056832;28;20436;-44
2023/04/19 08:27:53;;;;;;;15.20;13.70;;;13.80;1.00;;;;;;5055315;28;20478;-45
2023/04/19 08:30:19;;;;;;;14.87;13.40;;;14.00;99.90;;;;;;5056804;28;21035;-43
2023/04/19 08:32:44;;;;;;;14.90;13.30;;;14.20;99.90;;;;;;5057620;28;20566;-45
2023/04/19 08:35:10;;;;;;;14.80;13.30;;;14.40;99.90;;;;;;5057029;28;20181;-44
2023/04/19 08:37:35;;;;;;;14.27;12.93;;;14.50;99.90;;;;;;5056396;28;20174;-45
2023/04/19 08:40:02;;;;;;;13.00;11.80;;;14.60;99.90;;;;;;5056469;28;20258;-43
2023/04/19 08:42:28;;;;;;;13.67;12.37;;;14.80;99.90;;;;;;5053521;28;20174;-44
2023/04/19 08:44:56;;;;;;;14.17;12.77;;;15.00;99.90;;;;;;5036929;28;20424;-44
2023/04/19 08:47:22;;;;;;;14.20;12.60;;;15.30;99.90;;;;;;5056539;28;20289;-46
2023/04/19 08:49:48;;;;;;;11.63;10.50;;;15.50;99.90;;;;;;5054247;28;20859;-45
2023/04/19 08:52:14;;;;;;;13.00;11.70;;;15.50;47.50;;;;;;5054333;28;20510;-43
2023/04/19 08:54:40;;;;;;;12.30;11.10;;;15.60;47.70;;;;;;5053435;28;20190;-44
2023/04/19 08:57:07;;;;;;;12.10;11.00;;;15.70;14.10;;;;;;5054243;28;20450;-45
2023/04/19 08:59:34;;;;;;;11.90;10.77;;;15.80;15.40;;;;;;5053237;28;20412;-45
2023/04/19 09:02:02;;;;;;;11.00;9.93;;;16.00;1.00;;;;;;5052690;28;20428;-45
2023/04/19 09:04:28;;;;;;;11.47;10.27;;;16.00;1.00;;;;;;5054196;28;20419;-44
2023/04/19 09:06:54;;;;;;;10.33;9.23;;;16.00;1.00;;;;;;5053917;28;20412;-44
2023/04/19 09:09:22;;;;;;;11.53;10.43;;;16.00;1.00;;;;;;5053930;28;20420;-45
2023/04/19 09:11:48;;;;;;;11.80;10.70;;;16.00;1.00;;;;;;5054155;28;20543;-45
2023/04/19 09:14:16;;;;;;;11.60;10.50;;;16.00;1.00;;;;;;5054773;28;20424;-43
2023/04/19 09:16:42;;;;;;;11.63;10.50;;;16.00;1.00;;;;;;5055379;28;20413;-44
2023/04/19 09:19:08;;;;;;;12.10;10.90;;;16.10;1.00;;;;;;5054585;28;20486;-43
2023/04/19 09:21:36;;;;;;;11.30;10.20;;;16.20;1.00;;;;;;5051993;28;20802;-45
2023/04/19 09:24:02;;;;;;;11.40;10.37;;;16.60;1.00;;;;;;5054440;28;20464;-46
2023/04/19 09:26:31;;;;;;;12.07;10.80;;;16.80;1.00;;;;;;5052623;28;20456;-44
2023/04/19 09:29:03;;;;;;;12.00;10.10;;;16.90;1.00;;;;;;5052527;28;20440;-46
2023/04/19 09:31:30;;;;;;;10.50;9.40;;;17.30;1.00;;;;;;5050761;28;20681;-46
2023/04/19 09:33:56;;;;;;;10.73;9.70;;;17.90;1.00;;;;;;5050349;28;20456;-44
2023/04/19 09:36:30;;;;;;;10.40;9.50;;;18.50;1.00;;;;;;5051807;28;20486;-46
2023/04/19 09:38:56;;;;;;;11.63;10.53;;;18.80;1.00;;;;;;5053224;28;20753;-45
2023/04/19 09:41:21;;;;;;;10.00;9.10;;;18.70;1.00;;;;;;5052858;28;20413;-46
2023/04/19 09:43:47;;;;;;;10.17;9.27;;;18.60;1.00;;;;;;5050972;28;20490;-46
2023/04/19 09:46:35;;;;;;;10.70;9.57;;;18.60;1.00;;;;;;5052247;28;20599;-44
2023/04/19 09:49:16;;;;;;;9.60;8.70;;;18.50;1.00;;;;;;5052855;28;20421;-44
2023/04/19 09:51:43;;;;;;;9.97;9.07;;;17.90;1.00;;;;;;5054146;28;20746;-44
2023/04/19 09:54:10;;;;;;;10.53;9.50;;;18.30;1.00;;;;;;5053427;28;20717;-44
2023/04/19 09:56:36;;;;;;;9.77;8.87;;;18.60;1.00;;;;;;5053924;28;20735;-45
2023/04/19 09:59:03;;;;;;;10.07;9.17;;;19.20;1.00;;;;;;5052415;28;20420;-47
2023/04/19 10:01:53;;;;;;;9.83;8.93;;;19.80;1.00;;;;;;5052815;28;20427;-44
2023/04/19 10:04:22;;;;;;;10.53;9.53;;;20.30;1.00;;;;;;5050043;28;20440;-46
2023/04/19 10:06:52;;;;;;;9.03;8.13;;;20.70;1.00;;;;;;5053921;28;20424;-45
2023/04/19 10:09:19;;;;;;;10.53;9.63;;;20.90;1.00;;;;;;5053879;28;20812;-44
2023/04/19 10:11:52;;;;;;;9.00;8.13;;;21.40;1.00;;;;;;5053796;28;20459;-45
2023/04/19 10:14:23;;;;;;;10.70;9.60;;;21.80;1.00;;;;;;5052479;28;21082;-45
2023/04/19 10:16:49;;;;;;;9.93;8.93;;;21.70;1.00;;;;;;5052039;28;20411;-45
2023/04/19 10:19:21;;;;;;;9.90;9.00;;;21.30;1.00;;;;;;5051888;28;20416;-44
2023/04/19 10:21:48;;;;;;;10.27;9.23;;;21.00;1.00;;;;;;5049394;28;20527;-46
2023/04/19 10:24:14;;;;;;;10.63;9.70;;;20.70;1.00;;;;;;5046913;28;20416;-44
2023/04/19 10:27:11;;;;;;;10.93;9.83;;;20.40;1.00;;;;;;5051544;28;20470;-45
2023/04/19 10:30:04;;;;;;;11.13;10.00;;;20.00;1.00;;;;;;5052522;28;20465;-45
2023/04/19 10:32:42;;;;;;;12.43;10.97;;;19.60;1.00;;;;;;5052503;28;20456;-48
2023/04/19 10:35:17;;;;;;;10.83;9.83;;;19.10;1.00;;;;;;5052314;28;20498;-46
2023/04/19 10:38:15;;;;;;;11.43;10.23;;;18.70;1.00;;;;;;5051847;28;20647;-46
2023/04/19 10:41:00;;;;;;;10.67;9.77;;;18.30;1.00;;;;;;5050753;28;20558;-45
2023/04/19 10:43:29;;;;;;;13.07;11.77;;;17.80;1.00;;;;;;5048656;28;20726;-45
2023/04/19 10:45:59;;;;;;;12.13;11.03;;;17.60;1.00;;;;;;5050352;28;20408;-46
2023/04/19 10:48:34;;;;;;;10.93;9.93;;;17.20;1.00;;;;;;5050785;28;20550;-45
2023/04/19 10:51:20;;;;;;;12.77;11.47;;;16.90;1.00;;;;;;5052153;28;20880;-44
2023/04/19 10:53:53;;;;;;;10.83;9.83;;;16.60;1.00;;;;;;5050187;28;20841;-44
2023/04/19 10:56:22;;;;;;;10.47;9.40;;;16.40;1.00;;;;;;5048637;28;20404;-45
2023/04/19 10:59:06;;;;;;;12.53;11.33;;;16.40;1.00;;;;;;5047126;28;20443;-44
2023/04/19 11:01:46;;;;;;;11.60;10.57;;;16.40;1.00;;;;;;5048416;28;20427;-45
2023/04/19 11:04:14;;;;;;;11.40;10.27;;;16.30;1.00;;;;;;5049315;28;20431;-44
2023/04/19 11:06:52;;;;;;;10.60;9.70;;;16.30;1.00;;;;;;5049160;28;20545;-44
2023/04/19 11:09:31;;;;;;;13.40;12.10;;;16.30;1.00;;;;;;5045616;28;20455;-44
2023/04/19 11:12:00;;;;;;;10.87;9.80;;;16.40;1.00;;;;;;5048702;28;20524;-46
2023/04/19 11:14:26;;;;;;;10.60;9.63;;;16.50;1.00;;;;;;5049431;28;20413;-45
2023/04/19 11:16:51;;;;;;;12.73;11.63;;;16.40;1.00;;;;;;5049030;28;20419;-45
2023/04/19 11:19:18;;;;;;;12.93;10.67;;;16.30;1.00;;;;;;5048693;28;20404;-44
2023/04/19 11:21:45;;;;;;;11.93;10.60;;;16.20;1.00;;;;;;5049159;28;20174;-44
2023/04/19 11:24:11;;;;;;;12.23;11.13;;;15.90;1.00;;;;;;5032045;28;20826;-44
2023/04/19 11:26:37;;;;;;;13.97;11.90;;;15.50;1.00;;;;;;5047923;28;20472;-46
2023/04/19 11:29:05;;;;;;;13.10;11.83;;;15.10;1.00;;;;;;5049563;28;20463;-46
2023/04/19 11:31:33;;;;;;;13.20;12.00;;;14.90;1.00;;;;;;5048766;28;20351;-45
2023/04/19 11:33:59;;;;;;;14.00;11.80;;;14.70;1.00;;;;;;5044358;28;20428;-46
2023/04/19 11:36:25;;;;;;;13.53;12.10;;;14.60;1.00;;;;;;5042826;28;20447;-45
2023/04/19 11:38:52;;;;;;;12.13;11.03;;;14.60;1.00;;;;;;5045638;28;20408;-49
2023/04/19 11:41:18;;;;;;;12.60;11.30;;;14.50;1.00;;;;;;5046188;28;20532;-44
2023/04/19 11:43:45;;;;;;;12.70;11.40;;;14.40;1.00;;;;;;5045662;28;20507;-44
2023/04/19 11:46:11;;;;;;;12.73;11.53;;;14.30;1.00;;;;;;5048807;28;20182;-44
2023/04/19 11:48:38;;;;;;;12.67;11.50;;;14.30;1.00;;;;;;5050432;28;20541;-47
2023/04/19 11:51:04;;;;;;;12.73;11.43;;;14.30;1.00;;;;;;5050718;28;20715;-46
2023/04/19 11:53:31;;;;;;;13.37;12.00;;;14.30;1.00;;;;;;5048163;28;20709;-44
2023/04/19 11:56:03;;;;;;;12.47;11.30;;;14.20;1.00;;;;;;5049813;28;20405;-45
2023/04/19 11:58:43;;;;;;;12.63;11.43;;;14.30;1.00;;;;;;5049274;28;20842;-44
2023/04/19 12:01:14;;;;;;;12.50;11.30;;;14.20;1.00;;;;;;5051848;28;20416;-44
2023/04/19 12:03:43;;;;;;;13.60;12.20;;;14.00;1.00;;;;;;5050583;28;20482;-44
2023/04/19 12:06:15;;;;;;;14.53;12.90;;;13.80;1.00;;;;;;5051968;28;20420;-44
2023/04/19 12:08:46;;;;;;;12.90;11.60;;;13.60;1.00;;;;;;5050836;28;20867;-43
2023/04/19 12:11:12;;;;;;;13.70;12.40;;;13.40;1.00;;;;;;5053064;28;20737;-44
2023/04/19 12:13:39;;;;;;;13.83;12.33;;;13.30;1.30;;;;;;5051528;28;20421;-42
2023/04/19 12:16:05;;;;;;;13.90;12.40;;;13.10;37.00;;;;;;5052746;28;20427;-43
2023/04/19 12:18:49;;;;;;;14.00;12.47;;;12.90;99.90;;;;;;5056462;28;20424;-43
2023/04/19 12:21:26;;;;;;;13.47;12.17;;;12.70;99.90;;;;;;5054509;28;20452;-45
2023/04/19 12:23:59;;;;;;;13.73;11.77;;;12.50;99.90;;;;;;5051130;28;20423;-42
2023/04/19 12:26:27;;;;;;;14.60;13.00;;;12.40;1.00;;;;;;5050972;28;20491;-42
2023/04/19 12:28:53;;;;;;;16.03;14.17;;;12.30;1.00;;;;;;5054481;28;20435;-43
2023/04/19 12:31:19;;;;;;;13.97;12.60;;;12.20;62.50;;;;;;5052238;28;20483;-44
2023/04/19 12:33:45;;;;;;;13.40;12.20;;;12.20;99.90;;;;;;5053778;28;20806;-43
2023/04/19 12:36:11;;;;;;;15.33;13.73;;;12.10;1.00;;;;;;5052732;28;20519;-44
2023/04/19 12:38:37;;;;;;;15.43;13.83;;;12.10;1.00;;;;;;5053598;28;20523;-43
2023/04/19 12:41:02;;;;;;;18.57;14.30;;;12.00;1.00;;;;;;5051954;28;20264;-44